LIC0268 LEPA-LEMG
Flight info
| Callsign | LIC0268 |
|---|---|
| Flight time | 1h 21m |
| Altitude | 37000 |
| Route | BAVER M603 ALT/N0427F280 Y810 AMR/N0456F390 L112 KUNEN/N0454F380 L112 NESDA |
| Aircraft | A320/M-SDE3FGHIRWY/LB1 |
Departure
| Time | 2026-05-04 16:14 |
|---|---|
| Airport | Palma de Mallorca Airport (LEPA) |
Arrival
| Time | 2026-05-04 17:36 |
|---|---|
| Airport | Málaga-Costa del Sol Airport (LEMG) |
| Time | Latitude | Longitude | Altitude | Speed | Heading |
|---|---|---|---|---|---|
| 2026-05-04 15:43 | 39.55041 | 2.73542 | 35 ft | 0 kts | 164° |
| 2026-05-04 16:02 | 39.55043 | 2.73542 | 36 ft | 2 kts | 164° |
| 2026-05-04 16:02 | 39.55066 | 2.73530 | 36 ft | 4 kts | 142° |
| 2026-05-04 16:02 | 39.55076 | 2.73489 | 33 ft | 1 kts | 58° |
| 2026-05-04 16:03 | 39.55075 | 2.73486 | 33 ft | 0 kts | 58° |
| 2026-05-04 16:07 | 39.55076 | 2.73487 | 33 ft | 1 kts | 58° |
| 2026-05-04 16:07 | 39.55178 | 2.73710 | 36 ft | 11 kts | 86° |
| 2026-05-04 16:08 | 39.55175 | 2.73800 | 35 ft | 9 kts | 64° |
| 2026-05-04 16:08 | 39.55343 | 2.73716 | 36 ft | 9 kts | 329° |
| 2026-05-04 16:09 | 39.55455 | 2.73630 | 33 ft | 11 kts | 329° |
| 2026-05-04 16:09 | 39.55611 | 2.73509 | 27 ft | 13 kts | 331° |
| 2026-05-04 16:10 | 39.55726 | 2.73653 | 28 ft | 12 kts | 58° |
| 2026-05-04 16:11 | 39.55862 | 2.73941 | 23 ft | 13 kts | 58° |
| 2026-05-04 16:11 | 39.55910 | 2.74043 | 24 ft | 14 kts | 58° |
| 2026-05-04 16:12 | 39.56043 | 2.74283 | 18 ft | 11 kts | 33° |
| 2026-05-04 16:12 | 39.56229 | 2.74291 | 17 ft | 11 kts | 276° |
| 2026-05-04 16:13 | 39.56196 | 2.74187 | 18 ft | 0 kts | 239° |
| 2026-05-04 16:13 | 39.56189 | 2.74173 | 18 ft | 19 kts | 239° |
| 2026-05-04 16:14 | 39.55490 | 2.72725 | 38 ft | 157 kts | 238° |
| 2026-05-04 16:14 | 39.54251 | 2.69928 | 1178 ft | 200 kts | 235° |
| 2026-05-04 16:15 | 39.51906 | 2.65387 | 3795 ft | 209 kts | 235° |
| 2026-05-04 16:16 | 39.50277 | 2.62250 | 5397 ft | 208 kts | 236° |
| 2026-05-04 16:16 | 39.47865 | 2.57555 | 8238 ft | 212 kts | 236° |
| 2026-05-04 16:17 | 39.46216 | 2.54339 | 10126 ft | 216 kts | 236° |
| 2026-05-04 16:18 | 39.43541 | 2.49050 | 11889 ft | 267 kts | 237° |
| 2026-05-04 16:18 | 39.42487 | 2.46941 | 12261 ft | 291 kts | 237° |
| 2026-05-04 16:19 | 39.38926 | 2.39814 | 13810 ft | 325 kts | 237° |
| 2026-05-04 16:19 | 39.36458 | 2.34894 | 13948 ft | 325 kts | 237° |
| 2026-05-04 16:20 | 39.32771 | 2.27592 | 13929 ft | 324 kts | 238° |
| 2026-05-04 16:20 | 39.30308 | 2.22713 | 13944 ft | 324 kts | 238° |
| 2026-05-04 16:21 | 39.26621 | 2.15420 | 13939 ft | 324 kts | 237° |
| 2026-05-04 16:22 | 39.24149 | 2.10547 | 13931 ft | 324 kts | 237° |
| 2026-05-04 16:22 | 39.20437 | 2.03254 | 13930 ft | 324 kts | 237° |
| 2026-05-04 16:23 | 39.16717 | 1.95953 | 14121 ft | 329 kts | 238° |
| 2026-05-04 16:24 | 39.13686 | 1.84880 | 17582 ft | 331 kts | 253° |
| 2026-05-04 16:25 | 39.12464 | 1.79151 | 19072 ft | 335 kts | 253° |
| 2026-05-04 16:26 | 39.09963 | 1.67463 | 21894 ft | 343 kts | 252° |
| 2026-05-04 16:26 | 39.08029 | 1.58498 | 23849 ft | 349 kts | 251° |
| 2026-05-04 16:27 | 39.06716 | 1.52430 | 24875 ft | 354 kts | 252° |
| 2026-05-04 16:28 | 39.04711 | 1.43196 | 26322 ft | 362 kts | 252° |
| 2026-05-04 16:28 | 39.02656 | 1.33754 | 27729 ft | 368 kts | 252° |
| 2026-05-04 16:29 | 38.99850 | 1.20928 | 29438 ft | 378 kts | 252° |
| 2026-05-04 16:30 | 38.97692 | 1.11105 | 30543 ft | 383 kts | 252° |
| 2026-05-04 16:31 | 38.96231 | 1.04486 | 31157 ft | 386 kts | 252° |
| 2026-05-04 16:31 | 38.94023 | 0.94512 | 32159 ft | 386 kts | 251° |
| 2026-05-04 16:32 | 38.91828 | 0.84679 | 33374 ft | 380 kts | 251° |
| 2026-05-04 16:33 | 38.90367 | 0.78168 | 34165 ft | 377 kts | 251° |
| 2026-05-04 16:33 | 38.88916 | 0.71696 | 34752 ft | 378 kts | 251° |
| 2026-05-04 16:34 | 38.87312 | 0.65346 | 34913 ft | 369 kts | 247° |
| 2026-05-04 16:34 | 38.86359 | 0.62295 | 34912 ft | 366 kts | 247° |
| 2026-05-04 16:35 | 38.80057 | 0.44590 | 34904 ft | 365 kts | 237° |
| 2026-05-04 16:36 | 38.75844 | 0.36452 | 34919 ft | 365 kts | 237° |
| 2026-05-04 16:37 | 38.71645 | 0.28324 | 34909 ft | 366 kts | 237° |
| 2026-05-04 16:38 | 38.66019 | 0.17486 | 34908 ft | 366 kts | 237° |
| 2026-05-04 16:39 | 38.58957 | 0.03946 | 34911 ft | 365 kts | 237° |
| 2026-05-04 16:40 | 38.53320 | -0.06834 | 34932 ft | 365 kts | 237° |
| 2026-05-04 16:41 | 38.46251 | -0.20287 | 34924 ft | 365 kts | 237° |
| 2026-05-04 16:43 | 38.39186 | -0.33711 | 34920 ft | 365 kts | 237° |
| 2026-05-04 16:43 | 38.34914 | -0.41767 | 34920 ft | 365 kts | 237° |
| 2026-05-04 16:45 | 38.25720 | -0.57128 | 34923 ft | 373 kts | 219° |
| 2026-05-04 16:46 | 38.18459 | -0.61181 | 34885 ft | 382 kts | 208° |
| 2026-05-04 16:46 | 38.13541 | -0.63637 | 34904 ft | 381 kts | 208° |
| 2026-05-04 16:47 | 38.03671 | -0.68555 | 34919 ft | 380 kts | 208° |
| 2026-05-04 16:48 | 37.93836 | -0.73420 | 34898 ft | 380 kts | 208° |
| 2026-05-04 16:49 | 37.84007 | -0.78292 | 34921 ft | 380 kts | 208° |
| 2026-05-04 16:50 | 37.75418 | -0.85265 | 34913 ft | 362 kts | 234° |
| 2026-05-04 16:51 | 37.70681 | -0.92676 | 34871 ft | 363 kts | 233° |
| 2026-05-04 16:52 | 37.64817 | -1.01761 | 34901 ft | 364 kts | 233° |
| 2026-05-04 16:53 | 37.60028 | -1.09215 | 34903 ft | 364 kts | 233° |
| 2026-05-04 16:54 | 37.53639 | -1.19099 | 34920 ft | 364 kts | 233° |
| 2026-05-04 16:55 | 37.44049 | -1.33892 | 34881 ft | 364 kts | 233° |
| 2026-05-04 16:56 | 37.36020 | -1.46212 | 34894 ft | 364 kts | 233° |
| 2026-05-04 16:57 | 37.31206 | -1.53584 | 34916 ft | 365 kts | 233° |
| 2026-05-04 16:58 | 37.24762 | -1.63426 | 34909 ft | 364 kts | 233° |
| 2026-05-04 17:00 | 37.15078 | -1.78141 | 34873 ft | 366 kts | 233° |
| 2026-05-04 17:01 | 37.06967 | -1.90418 | 34889 ft | 366 kts | 233° |
| 2026-05-04 17:02 | 37.00470 | -2.00209 | 34930 ft | 366 kts | 233° |
| 2026-05-04 17:03 | 36.95581 | -2.07555 | 34909 ft | 366 kts | 233° |
| 2026-05-04 17:03 | 36.90712 | -2.14870 | 34926 ft | 366 kts | 233° |
| 2026-05-04 17:04 | 36.84502 | -2.24897 | 34930 ft | 363 kts | 245° |
| 2026-05-04 17:05 | 36.83317 | -2.30993 | 34957 ft | 365 kts | 265° |
| 2026-05-04 17:05 | 36.83325 | -2.37302 | 34958 ft | 365 kts | 266° |
| 2026-05-04 17:06 | 36.83300 | -2.46844 | 34955 ft | 365 kts | 266° |
| 2026-05-04 17:07 | 36.83279 | -2.55239 | 34951 ft | 365 kts | 266° |
| 2026-05-04 17:07 | 36.83263 | -2.62641 | 34951 ft | 364 kts | 266° |
| 2026-05-04 17:08 | 36.83230 | -2.72131 | 34965 ft | 364 kts | 266° |
| 2026-05-04 17:09 | 36.83203 | -2.78432 | 34968 ft | 364 kts | 266° |
| 2026-05-04 17:09 | 36.83173 | -2.84780 | 34644 ft | 360 kts | 266° |
| 2026-05-04 17:10 | 36.83131 | -2.90884 | 33307 ft | 356 kts | 265° |
| 2026-05-04 17:10 | 36.83044 | -3.00095 | 31506 ft | 347 kts | 266° |
| 2026-05-04 17:11 | 36.83019 | -3.03098 | 30906 ft | 344 kts | 266° |
| 2026-05-04 17:11 | 36.82991 | -3.06087 | 30316 ft | 342 kts | 266° |
| 2026-05-04 17:11 | 36.82932 | -3.11939 | 29101 ft | 335 kts | 266° |
| 2026-05-04 17:12 | 36.82902 | -3.14848 | 28530 ft | 332 kts | 266° |
| 2026-05-04 17:12 | 36.82845 | -3.20537 | 27432 ft | 326 kts | 266° |
| 2026-05-04 17:13 | 36.82747 | -3.28971 | 25845 ft | 322 kts | 266° |
| 2026-05-04 17:14 | 36.82648 | -3.37320 | 24353 ft | 318 kts | 265° |
| 2026-05-04 17:14 | 36.82616 | -3.40068 | 23875 ft | 315 kts | 266° |
| 2026-05-04 17:14 | 36.82553 | -3.45499 | 22874 ft | 313 kts | 266° |
| 2026-05-04 17:15 | 36.82517 | -3.48215 | 22391 ft | 312 kts | 266° |
| 2026-05-04 17:15 | 36.82442 | -3.53607 | 21455 ft | 308 kts | 266° |
| 2026-05-04 17:16 | 36.82367 | -3.58912 | 20506 ft | 307 kts | 266° |
| 2026-05-04 17:16 | 36.82254 | -3.66897 | 19034 ft | 306 kts | 267° |
| 2026-05-04 17:17 | 36.82162 | -3.69532 | 18537 ft | 306 kts | 261° |
| 2026-05-04 17:17 | 36.78823 | -3.76112 | 16976 ft | 312 kts | 217° |
| 2026-05-04 17:18 | 36.76897 | -3.77384 | 16467 ft | 313 kts | 211° |
| 2026-05-04 17:18 | 36.72994 | -3.79755 | 15494 ft | 314 kts | 208° |
| 2026-05-04 17:19 | 36.69017 | -3.81699 | 15329 ft | 303 kts | 206° |
| 2026-05-04 17:19 | 36.65073 | -3.83517 | 15191 ft | 303 kts | 206° |
| 2026-05-04 17:20 | 36.61100 | -3.85352 | 15050 ft | 303 kts | 206° |
| 2026-05-04 17:20 | 36.57171 | -3.87178 | 14480 ft | 302 kts | 206° |
| 2026-05-04 17:20 | 36.55196 | -3.88093 | 14051 ft | 302 kts | 206° |
| 2026-05-04 17:21 | 36.51249 | -3.89928 | 13153 ft | 302 kts | 206° |
| 2026-05-04 17:21 | 36.47474 | -3.91672 | 12937 ft | 278 kts | 206° |
| 2026-05-04 17:22 | 36.45691 | -3.92493 | 12846 ft | 268 kts | 206° |
| 2026-05-04 17:22 | 36.43971 | -3.93286 | 12735 ft | 258 kts | 206° |
| 2026-05-04 17:23 | 36.39277 | -3.95652 | 12407 ft | 225 kts | 219° |
| 2026-05-04 17:23 | 36.38071 | -3.96894 | 11993 ft | 227 kts | 226° |
| 2026-05-04 17:23 | 36.35684 | -3.99566 | 11163 ft | 236 kts | 226° |
| 2026-05-04 17:24 | 36.34602 | -4.01088 | 10738 ft | 235 kts | 246° |
| 2026-05-04 17:24 | 36.36236 | -4.06468 | 9428 ft | 249 kts | 308° |
| 2026-05-04 17:25 | 36.37402 | -4.08056 | 9025 ft | 247 kts | 307° |
| 2026-05-04 17:25 | 36.39629 | -4.11123 | 8188 ft | 230 kts | 308° |
| 2026-05-04 17:26 | 36.41675 | -4.13968 | 7468 ft | 211 kts | 306° |
| 2026-05-04 17:26 | 36.44347 | -4.17687 | 6553 ft | 176 kts | 310° |
| 2026-05-04 17:27 | 36.45893 | -4.19832 | 5985 ft | 155 kts | 311° |
| 2026-05-04 17:27 | 36.47231 | -4.21687 | 5585 ft | 134 kts | 311° |
| 2026-05-04 17:28 | 36.48453 | -4.23383 | 5246 ft | 130 kts | 312° |
| 2026-05-04 17:29 | 36.50255 | -4.25886 | 4737 ft | 129 kts | 312° |
| 2026-05-04 17:29 | 36.52047 | -4.28375 | 4212 ft | 128 kts | 311° |
| 2026-05-04 17:30 | 36.53831 | -4.30855 | 3700 ft | 129 kts | 311° |
| 2026-05-04 17:31 | 36.55185 | -4.32738 | 3327 ft | 155 kts | 311° |
| 2026-05-04 17:31 | 36.57294 | -4.35674 | 2721 ft | 148 kts | 310° |
| 2026-05-04 17:32 | 36.58677 | -4.37601 | 2323 ft | 145 kts | 307° |
| 2026-05-04 17:33 | 36.60695 | -4.40415 | 1752 ft | 144 kts | 307° |
| 2026-05-04 17:33 | 36.61376 | -4.41366 | 1553 ft | 148 kts | 307° |
| 2026-05-04 17:34 | 36.63142 | -4.43825 | 1046 ft | 116 kts | 303° |
| 2026-05-04 17:34 | 36.63674 | -4.44571 | 899 ft | 116 kts | 303° |
| 2026-05-04 17:35 | 36.65364 | -4.46844 | 406 ft | 126 kts | 304° |
| 2026-05-04 17:35 | 36.66509 | -4.48485 | 127 ft | 127 kts | 307° |
| 2026-05-04 17:35 | 36.67074 | -4.49310 | 50 ft | 118 kts | 308° |
| 2026-05-04 17:36 | 36.67505 | -4.49928 | 51 ft | 73 kts | 311° |
| 2026-05-04 17:36 | 36.67703 | -4.50160 | 54 ft | 23 kts | 335° |
| 2026-05-04 17:36 | 36.67793 | -4.50212 | 53 ft | 13 kts | 339° |
| 2026-05-04 17:36 | 36.67872 | -4.50203 | 46 ft | 14 kts | 54° |
| 2026-05-04 17:37 | 36.67829 | -4.50092 | 44 ft | 16 kts | 131° |
| 2026-05-04 17:37 | 36.67752 | -4.49981 | 44 ft | 18 kts | 130° |
| 2026-05-04 17:37 | 36.67678 | -4.49875 | 43 ft | 14 kts | 131° |
| 2026-05-04 17:37 | 36.67613 | -4.49782 | 43 ft | 14 kts | 131° |
| 2026-05-04 17:38 | 36.67545 | -4.49687 | 43 ft | 15 kts | 131° |
| 2026-05-04 17:38 | 36.67470 | -4.49581 | 42 ft | 18 kts | 132° |
| 2026-05-04 17:38 | 36.67382 | -4.49459 | 43 ft | 21 kts | 132° |
| 2026-05-04 17:38 | 36.67295 | -4.49339 | 43 ft | 13 kts | 132° |
| 2026-05-04 17:39 | 36.67337 | -4.49222 | 42 ft | 9 kts | 358° |
| 2026-05-04 17:39 | 36.67385 | -4.49191 | 42 ft | 8 kts | 40° |
| 2026-05-04 17:39 | 36.67402 | -4.49144 | 42 ft | 5 kts | 103° |
| 2026-05-04 17:40 | 36.67386 | -4.49102 | 40 ft | 5 kts | 114° |
| 2026-05-04 17:40 | 36.67383 | -4.49095 | 41 ft | 0 kts | 115° |
| 2026-05-04 17:40 | 36.67383 | -4.49093 | 42 ft | 0 kts | 115° |